sensor_id;sensor_type;location;lat;lon;timestamp;temperature;humidity
2024;DHT22;1016;48.770;9.154;2023-05-09T00:00:01;16.10;99.90
2024;DHT22;1016;48.770;9.154;2023-05-09T00:02:27;16.00;99.90
2024;DHT22;1016;48.770;9.154;2023-05-09T00:04:54;16.10;99.90
2024;DHT22;1016;48.770;9.154;2023-05-09T00:07:19;16.00;99.90
2024;DHT22;1016;48.770;9.154;2023-05-09T00:09:45;16.00;99.90
2024;DHT22;1016;48.770;9.154;2023-05-09T00:12:10;16.00;99.90
2024;DHT22;1016;48.770;9.154;2023-05-09T00:14:36;16.00;99.90
2024;DHT22;1016;48.770;9.154;2023-05-09T00:17:03;16.00;99.90
2024;DHT22;1016;48.770;9.154;2023-05-09T00:19:28;16.10;99.90
2024;DHT22;1016;48.770;9.154;2023-05-09T00:21:54;16.00;99.90
2024;DHT22;1016;48.770;9.154;2023-05-09T00:24:20;16.10;99.90
2024;DHT22;1016;48.770;9.154;2023-05-09T00:26:45;16.00;99.90
2024;DHT22;1016;48.770;9.154;2023-05-09T00:29:11;16.10;99.90
2024;DHT22;1016;48.770;9.154;2023-05-09T00:31:36;16.10;99.90
2024;DHT22;1016;48.770;9.154;2023-05-09T00:34:02;16.10;99.90
2024;DHT22;1016;48.770;9.154;2023-05-09T00:36:27;16.10;99.90
2024;DHT22;1016;48.770;9.154;2023-05-09T00:38:53;16.10;99.90
2024;DHT22;1016;48.770;9.154;2023-05-09T00:41:18;16.10;99.90
2024;DHT22;1016;48.770;9.154;2023-05-09T00:43:44;16.00;99.90
2024;DHT22;1016;48.770;9.154;2023-05-09T00:46:10;16.00;99.90
2024;DHT22;1016;48.770;9.154;2023-05-09T00:48:36;16.10;99.90
2024;DHT22;1016;48.770;9.154;2023-05-09T00:51:01;16.10;99.90
2024;DHT22;1016;48.770;9.154;2023-05-09T00:53:27;16.10;99.90
2024;DHT22;1016;48.770;9.154;2023-05-09T00:55:54;16.10;99.90
2024;DHT22;1016;48.770;9.154;2023-05-09T00:58:21;16.10;99.90
2024;DHT22;1016;48.770;9.154;2023-05-09T01:00:46;16.10;99.90
2024;DHT22;1016;48.770;9.154;2023-05-09T01:03:12;16.10;99.90
2024;DHT22;1016;48.770;9.154;2023-05-09T01:05:51;16.10;99.90
2024;DHT22;1016;48.770;9.154;2023-05-09T01:08:56;16.10;99.90
2024;DHT22;1016;48.770;9.154;2023-05-09T01:11:31;16.10;99.90
2024;DHT22;1016;48.770;9.154;2023-05-09T01:22:17;16.00;99.90
2024;DHT22;1016;48.770;9.154;2023-05-09T01:30:15;16.00;99.90
2024;DHT22;1016;48.770;9.154;2023-05-09T01:32:42;16.10;99.90
2024;DHT22;1016;48.770;9.154;2023-05-09T01:35:12;16.10;99.90
2024;DHT22;1016;48.770;9.154;2023-05-09T01:37:41;16.10;99.90
2024;DHT22;1016;48.770;9.154;2023-05-09T01:40:15;16.10;99.90
2024;DHT22;1016;48.770;9.154;2023-05-09T01:43:04;16.10;99.90
2024;DHT22;1016;48.770;9.154;2023-05-09T01:45:29;16.10;99.90
2024;DHT22;1016;48.770;9.154;2023-05-09T01:47:56;16.00;99.90
2024;DHT22;1016;48.770;9.154;2023-05-09T01:50:23;16.10;99.90
2024;DHT22;1016;48.770;9.154;2023-05-09T01:52:52;16.00;99.90
2024;DHT22;1016;48.770;9.154;2023-05-09T01:55:18;16.00;99.90
2024;DHT22;1016;48.770;9.154;2023-05-09T01:57:46;16.10;99.90
2024;DHT22;1016;48.770;9.154;2023-05-09T02:00:13;16.10;99.90
2024;DHT22;1016;48.770;9.154;2023-05-09T02:02:39;16.20;99.90
2024;DHT22;1016;48.770;9.154;2023-05-09T02:05:08;16.20;99.90
2024;DHT22;1016;48.770;9.154;2023-05-09T02:07:35;16.20;99.90
2024;DHT22;1016;48.770;9.154;2023-05-09T02:10:01;16.10;99.90
2024;DHT22;1016;48.770;9.154;2023-05-09T02:12:27;16.10;99.90
2024;DHT22;1016;48.770;9.154;2023-05-09T02:14:53;16.00;99.90
2024;DHT22;1016;48.770;9.154;2023-05-09T02:17:18;16.00;99.90
2024;DHT22;1016;48.770;9.154;2023-05-09T02:19:45;16.00;99.90
2024;DHT22;1016;48.770;9.154;2023-05-09T02:22:12;15.90;99.90
2024;DHT22;1016;48.770;9.154;2023-05-09T02:24:37;16.00;99.90
2024;DHT22;1016;48.770;9.154;2023-05-09T02:27:04;15.90;99.90
2024;DHT22;1016;48.770;9.154;2023-05-09T02:29:37;16.00;99.90
2024;DHT22;1016;48.770;9.154;2023-05-09T02:32:13;16.00;99.90
2024;DHT22;1016;48.770;9.154;2023-05-09T02:34:41;16.00;99.90
2024;DHT22;1016;48.770;9.154;2023-05-09T02:37:07;16.00;99.90
2024;DHT22;1016;48.770;9.154;2023-05-09T02:39:33;16.00;99.90
2024;DHT22;1016;48.770;9.154;2023-05-09T02:42:10;16.00;99.90
2024;DHT22;1016;48.770;9.154;2023-05-09T02:44:36;16.10;99.90
2024;DHT22;1016;48.770;9.154;2023-05-09T02:47:03;16.00;99.90
2024;DHT22;1016;48.770;9.154;2023-05-09T02:49:29;16.10;99.90
2024;DHT22;1016;48.770;9.154;2023-05-09T02:51:55;16.00;99.90
2024;DHT22;1016;48.770;9.154;2023-05-09T02:54:20;16.00;99.90
2024;DHT22;1016;48.770;9.154;2023-05-09T02:56:46;16.00;99.90
2024;DHT22;1016;48.770;9.154;2023-05-09T02:59:12;16.00;99.90
2024;DHT22;1016;48.770;9.154;2023-05-09T03:01:37;16.00;99.90
2024;DHT22;1016;48.770;9.154;2023-05-09T03:04:03;16.00;99.90
2024;DHT22;1016;48.770;9.154;2023-05-09T03:06:28;16.00;99.90
2024;DHT22;1016;48.770;9.154;2023-05-09T03:08:54;16.00;99.90
2024;DHT22;1016;48.770;9.154;2023-05-09T03:11:19;16.00;99.90
2024;DHT22;1016;48.770;9.154;2023-05-09T03:13:45;16.00;99.90
2024;DHT22;1016;48.770;9.154;2023-05-09T03:16:13;16.00;99.90
2024;DHT22;1016;48.770;9.154;2023-05-09T03:18:39;16.00;99.90
2024;DHT22;1016;48.770;9.154;2023-05-09T03:21:05;16.00;99.90
2024;DHT22;1016;48.770;9.154;2023-05-09T03:23:30;16.00;99.90
2024;DHT22;1016;48.770;9.154;2023-05-09T03:25:56;16.00;99.90
2024;DHT22;1016;48.770;9.154;2023-05-09T03:28:21;16.00;99.90
2024;DHT22;1016;48.770;9.154;2023-05-09T03:30:47;16.00;99.90
2024;DHT22;1016;48.770;9.154;2023-05-09T03:33:12;16.00;99.90
2024;DHT22;1016;48.770;9.154;2023-05-09T03:35:38;16.00;99.90
2024;DHT22;1016;48.770;9.154;2023-05-09T03:38:03;16.00;99.90
2024;DHT22;1016;48.770;9.154;2023-05-09T03:40:29;16.00;99.90
2024;DHT22;1016;48.770;9.154;2023-05-09T03:42:55;16.10;99.90
2024;DHT22;1016;48.770;9.154;2023-05-09T03:45:20;16.10;99.90
2024;DHT22;1016;48.770;9.154;2023-05-09T03:47:46;16.00;99.90
2024;DHT22;1016;48.770;9.154;2023-05-09T03:50:11;16.00;99.90
2024;DHT22;1016;48.770;9.154;2023-05-09T03:52:37;16.00;99.90
2024;DHT22;1016;48.770;9.154;2023-05-09T03:55:03;16.00;99.90
2024;DHT22;1016;48.770;9.154;2023-05-09T03:57:28;16.00;99.90
2024;DHT22;1016;48.770;9.154;2023-05-09T03:59:54;16.00;99.90
2024;DHT22;1016;48.770;9.154;2023-05-09T04:02:20;16.00;99.90
2024;DHT22;1016;48.770;9.154;2023-05-09T04:04:45;16.00;99.90
2024;DHT22;1016;48.770;9.154;2023-05-09T04:07:11;16.00;99.90
2024;DHT22;1016;48.770;9.154;2023-05-09T04:09:37;16.00;99.90
2024;DHT22;1016;48.770;9.154;2023-05-09T04:12:03;16.00;99.90
2024;DHT22;1016;48.770;9.154;2023-05-09T04:14:28;16.00;99.90
2024;DHT22;1016;48.770;9.154;2023-05-09T04:16:54;16.00;99.90
2024;DHT22;1016;48.770;9.154;2023-05-09T04:19:19;16.00;99.90
2024;DHT22;1016;48.770;9.154;2023-05-09T04:21:45;16.00;99.90
2024;DHT22;1016;48.770;9.154;2023-05-09T04:24:10;16.00;99.90
2024;DHT22;1016;48.770;9.154;2023-05-09T04:26:36;15.90;99.90
2024;DHT22;1016;48.770;9.154;2023-05-09T04:29:03;15.90;99.90
2024;DHT22;1016;48.770;9.154;2023-05-09T04:31:28;15.90;99.90
2024;DHT22;1016;48.770;9.154;2023-05-09T04:33:54;15.90;99.90
2024;DHT22;1016;48.770;9.154;2023-05-09T04:36:20;15.90;99.90
2024;DHT22;1016;48.770;9.154;2023-05-09T04:38:46;15.90;99.90
2024;DHT22;1016;48.770;9.154;2023-05-09T04:41:11;15.90;99.90
2024;DHT22;1016;48.770;9.154;2023-05-09T04:43:37;15.80;99.90
2024;DHT22;1016;48.770;9.154;2023-05-09T04:46:02;15.80;99.90
2024;DHT22;1016;48.770;9.154;2023-05-09T04:48:28;15.80;99.90
2024;DHT22;1016;48.770;9.154;2023-05-09T04:50:53;15.80;99.90
2024;DHT22;1016;48.770;9.154;2023-05-09T04:53:19;15.80;99.90
2024;DHT22;1016;48.770;9.154;2023-05-09T04:55:44;15.80;99.90
2024;DHT22;1016;48.770;9.154;2023-05-09T04:58:10;15.90;99.90
2024;DHT22;1016;48.770;9.154;2023-05-09T05:00:35;15.90;99.90
2024;DHT22;1016;48.770;9.154;2023-05-09T05:03:01;15.90;99.90
2024;DHT22;1016;48.770;9.154;2023-05-09T05:05:26;15.90;99.90
2024;DHT22;1016;48.770;9.154;2023-05-09T05:07:52;16.00;99.90
2024;DHT22;1016;48.770;9.154;2023-05-09T05:10:18;16.00;99.90
2024;DHT22;1016;48.770;9.154;2023-05-09T05:12:44;16.00;99.90
2024;DHT22;1016;48.770;9.154;2023-05-09T05:15:10;16.00;99.90
2024;DHT22;1016;48.770;9.154;2023-05-09T05:17:36;16.00;99.90
2024;DHT22;1016;48.770;9.154;2023-05-09T05:20:02;16.00;99.90
2024;DHT22;1016;48.770;9.154;2023-05-09T05:22:31;16.10;99.90
2024;DHT22;1016;48.770;9.154;2023-05-09T05:24:56;16.10;99.90
2024;DHT22;1016;48.770;9.154;2023-05-09T05:27:22;16.10;99.90
2024;DHT22;1016;48.770;9.154;2023-05-09T05:29:47;16.10;99.90
2024;DHT22;1016;48.770;9.154;2023-05-09T05:32:13;16.20;99.90
2024;DHT22;1016;48.770;9.154;2023-05-09T05:34:38;16.20;99.90
2024;DHT22;1016;48.770;9.154;2023-05-09T05:37:04;16.20;99.90
2024;DHT22;1016;48.770;9.154;2023-05-09T05:39:29;16.20;99.90
2024;DHT22;1016;48.770;9.154;2023-05-09T05:41:55;16.20;99.90
2024;DHT22;1016;48.770;9.154;2023-05-09T05:44:20;16.20;99.90
2024;DHT22;1016;48.770;9.154;2023-05-09T05:46:46;16.20;99.90
2024;DHT22;1016;48.770;9.154;2023-05-09T05:49:11;16.30;99.90
2024;DHT22;1016;48.770;9.154;2023-05-09T05:51:37;16.30;99.90
2024;DHT22;1016;48.770;9.154;2023-05-09T05:54:02;16.30;99.90
2024;DHT22;1016;48.770;9.154;2023-05-09T05:56:28;16.30;99.90
2024;DHT22;1016;48.770;9.154;2023-05-09T05:58:53;16.30;99.90
2024;DHT22;1016;48.770;9.154;2023-05-09T06:01:19;16.40;99.90
2024;DHT22;1016;48.770;9.154;2023-05-09T06:03:44;16.40;99.90
2024;DHT22;1016;48.770;9.154;2023-05-09T06:06:10;16.50;99.90
2024;DHT22;1016;48.770;9.154;2023-05-09T06:08:36;16.50;99.90
2024;DHT22;1016;48.770;9.154;2023-05-09T06:11:01;16.50;99.90
2024;DHT22;1016;48.770;9.154;2023-05-09T06:13:27;16.50;99.90
2024;DHT22;1016;48.770;9.154;2023-05-09T06:15:55;16.50;99.90
2024;DHT22;1016;48.770;9.154;2023-05-09T06:18:21;16.50;99.90
2024;DHT22;1016;48.770;9.154;2023-05-09T06:20:47;16.60;99.90
2024;DHT22;1016;48.770;9.154;2023-05-09T06:23:12;16.60;99.90
2024;DHT22;1016;48.770;9.154;2023-05-09T06:25:38;16.60;99.90
2024;DHT22;1016;48.770;9.154;2023-05-09T06:28:03;16.70;99.90
2024;DHT22;1016;48.770;9.154;2023-05-09T06:30:29;16.70;99.90
2024;DHT22;1016;48.770;9.154;2023-05-09T06:32:54;16.60;99.90
2024;DHT22;1016;48.770;9.154;2023-05-09T06:35:22;16.70;99.90
2024;DHT22;1016;48.770;9.154;2023-05-09T06:37:47;16.80;99.90
2024;DHT22;1016;48.770;9.154;2023-05-09T06:40:13;16.80;99.90
2024;DHT22;1016;48.770;9.154;2023-05-09T06:42:38;16.80;99.90
2024;DHT22;1016;48.770;9.154;2023-05-09T06:45:04;16.70;99.90
2024;DHT22;1016;48.770;9.154;2023-05-09T06:47:30;16.70;99.90
2024;DHT22;1016;48.770;9.154;2023-05-09T06:49:56;16.70;99.90
2024;DHT22;1016;48.770;9.154;2023-05-09T06:52:21;16.70;99.90
2024;DHT22;1016;48.770;9.154;2023-05-09T06:54:47;16.70;99.90
2024;DHT22;1016;48.770;9.154;2023-05-09T06:57:12;16.70;99.90
2024;DHT22;1016;48.770;9.154;2023-05-09T06:59:38;16.70;99.90
2024;DHT22;1016;48.770;9.154;2023-05-09T07:02:03;16.80;99.90
2024;DHT22;1016;48.770;9.154;2023-05-09T07:04:29;16.80;99.90
2024;DHT22;1016;48.770;9.154;2023-05-09T07:06:55;16.80;99.90
2024;DHT22;1016;48.770;9.154;2023-05-09T07:09:20;16.80;99.90
2024;DHT22;1016;48.770;9.154;2023-05-09T07:11:47;16.80;99.90
2024;DHT22;1016;48.770;9.154;2023-05-09T07:14:13;16.90;99.90
2024;DHT22;1016;48.770;9.154;2023-05-09T07:16:38;16.90;99.90
2024;DHT22;1016;48.770;9.154;2023-05-09T07:19:04;17.00;99.90
2024;DHT22;1016;48.770;9.154;2023-05-09T07:21:30;17.10;99.90
2024;DHT22;1016;48.770;9.154;2023-05-09T07:23:57;17.10;99.90
2024;DHT22;1016;48.770;9.154;2023-05-09T07:26:22;17.10;99.90
2024;DHT22;1016;48.770;9.154;2023-05-09T07:28:48;17.20;99.90
2024;DHT22;1016;48.770;9.154;2023-05-09T07:31:13;17.20;99.90
2024;DHT22;1016;48.770;9.154;2023-05-09T07:33:39;17.30;99.90
2024;DHT22;1016;48.770;9.154;2023-05-09T07:36:05;17.30;99.90
2024;DHT22;1016;48.770;9.154;2023-05-09T07:38:30;17.40;99.90
2024;DHT22;1016;48.770;9.154;2023-05-09T07:40:56;17.40;99.90
2024;DHT22;1016;48.770;9.154;2023-05-09T07:43:21;17.50;99.90
2024;DHT22;1016;48.770;9.154;2023-05-09T07:45:47;17.50;99.90
2024;DHT22;1016;48.770;9.154;2023-05-09T07:48:12;17.60;99.90
2024;DHT22;1016;48.770;9.154;2023-05-09T07:50:38;17.80;99.90
2024;DHT22;1016;48.770;9.154;2023-05-09T07:53:04;17.80;99.90
2024;DHT22;1016;48.770;9.154;2023-05-09T07:55:29;17.80;99.90
2024;DHT22;1016;48.770;9.154;2023-05-09T07:57:55;17.80;99.90
2024;DHT22;1016;48.770;9.154;2023-05-09T08:00:21;17.80;99.90
2024;DHT22;1016;48.770;9.154;2023-05-09T08:02:50;17.90;99.90
2024;DHT22;1016;48.770;9.154;2023-05-09T08:05:15;17.90;99.90
2024;DHT22;1016;48.770;9.154;2023-05-09T08:07:41;18.00;99.90
2024;DHT22;1016;48.770;9.154;2023-05-09T08:10:07;18.00;99.90
2024;DHT22;1016;48.770;9.154;2023-05-09T08:12:33;18.10;99.90
2024;DHT22;1016;48.770;9.154;2023-05-09T08:14:59;18.10;99.90
2024;DHT22;1016;48.770;9.154;2023-05-09T08:17:24;18.10;99.90
2024;DHT22;1016;48.770;9.154;2023-05-09T08:19:50;18.20;99.90
2024;DHT22;1016;48.770;9.154;2023-05-09T08:22:16;18.20;99.90
2024;DHT22;1016;48.770;9.154;2023-05-09T08:24:43;18.20;99.90
2024;DHT22;1016;48.770;9.154;2023-05-09T08:27:09;18.30;99.90
2024;DHT22;1016;48.770;9.154;2023-05-09T08:29:37;18.40;99.90
2024;DHT22;1016;48.770;9.154;2023-05-09T08:32:03;18.50;99.90
2024;DHT22;1016;48.770;9.154;2023-05-09T08:34:28;18.50;99.90
2024;DHT22;1016;48.770;9.154;2023-05-09T08:37:01;18.60;99.90
2024;DHT22;1016;48.770;9.154;2023-05-09T08:39:28;18.70;99.90
2024;DHT22;1016;48.770;9.154;2023-05-09T08:42:03;18.70;99.90
2024;DHT22;1016;48.770;9.154;2023-05-09T08:44:29;18.80;99.90
2024;DHT22;1016;48.770;9.154;2023-05-09T08:46:58;18.80;99.90
2024;DHT22;1016;48.770;9.154;2023-05-09T08:49:24;18.90;99.90
2024;DHT22;1016;48.770;9.154;2023-05-09T08:51:51;18.90;99.90
2024;DHT22;1016;48.770;9.154;2023-05-09T08:54:17;19.00;99.90
2024;DHT22;1016;48.770;9.154;2023-05-09T08:56:42;19.00;99.90
2024;DHT22;1016;48.770;9.154;2023-05-09T08:59:08;19.00;99.90
2024;DHT22;1016;48.770;9.154;2023-05-09T09:01:34;19.10;99.90
2024;DHT22;1016;48.770;9.154;2023-05-09T09:04:01;19.10;99.90
2024;DHT22;1016;48.770;9.154;2023-05-09T09:06:27;19.20;99.90
2024;DHT22;1016;48.770;9.154;2023-05-09T09:08:54;19.30;99.90
2024;DHT22;1016;48.770;9.154;2023-05-09T09:11:21;19.30;99.90
2024;DHT22;1016;48.770;9.154;2023-05-09T09:13:50;19.40;99.90
2024;DHT22;1016;48.770;9.154;2023-05-09T09:16:19;19.40;99.90
2024;DHT22;1016;48.770;9.154;2023-05-09T09:18:46;19.40;99.90
2024;DHT22;1016;48.770;9.154;2023-05-09T09:21:14;19.40;99.90
2024;DHT22;1016;48.770;9.154;2023-05-09T09:23:42;19.40;99.90
2024;DHT22;1016;48.770;9.154;2023-05-09T09:26:08;19.40;99.90
2024;DHT22;1016;48.770;9.154;2023-05-09T09:28:34;19.40;99.90
2024;DHT22;1016;48.770;9.154;2023-05-09T09:31:00;19.40;99.90
2024;DHT22;1016;48.770;9.154;2023-05-09T09:33:28;19.40;99.90
2024;DHT22;1016;48.770;9.154;2023-05-09T09:35:54;19.40;99.90
2024;DHT22;1016;48.770;9.154;2023-05-09T09:38:21;19.50;99.90
2024;DHT22;1016;48.770;9.154;2023-05-09T09:40:51;19.50;99.90
2024;DHT22;1016;48.770;9.154;2023-05-09T09:43:17;19.40;99.90
2024;DHT22;1016;48.770;9.154;2023-05-09T09:45:47;19.40;99.90
2024;DHT22;1016;48.770;9.154;2023-05-09T09:48:13;19.50;99.90
2024;DHT22;1016;48.770;9.154;2023-05-09T09:50:38;19.50;99.90
2024;DHT22;1016;48.770;9.154;2023-05-09T09:53:04;19.60;99.90
2024;DHT22;1016;48.770;9.154;2023-05-09T09:55:33;19.60;99.90
2024;DHT22;1016;48.770;9.154;2023-05-09T09:57:59;19.60;99.90
2024;DHT22;1016;48.770;9.154;2023-05-09T10:00:26;19.60;99.90
2024;DHT22;1016;48.770;9.154;2023-05-09T10:02:57;19.70;99.90
2024;DHT22;1016;48.770;9.154;2023-05-09T10:05:27;19.70;99.90
2024;DHT22;1016;48.770;9.154;2023-05-09T10:07:58;19.80;99.90
2024;DHT22;1016;48.770;9.154;2023-05-09T10:10:33;19.90;99.90
2024;DHT22;1016;48.770;9.154;2023-05-09T10:13:02;19.90;99.90
2024;DHT22;1016;48.770;9.154;2023-05-09T10:15:30;19.90;99.90
2024;DHT22;1016;48.770;9.154;2023-05-09T10:17:57;19.90;99.90
2024;DHT22;1016;48.770;9.154;2023-05-09T10:20:23;19.90;99.90
2024;DHT22;1016;48.770;9.154;2023-05-09T10:22:54;20.00;99.90
2024;DHT22;1016;48.770;9.154;2023-05-09T10:25:21;20.00;99.90
2024;DHT22;1016;48.770;9.154;2023-05-09T10:27:52;20.10;99.90
2024;DHT22;1016;48.770;9.154;2023-05-09T10:30:22;20.20;99.90
2024;DHT22;1016;48.770;9.154;2023-05-09T10:35:29;20.20;99.90
2024;DHT22;1016;48.770;9.154;2023-05-09T10:37:55;20.20;99.90
2024;DHT22;1016;48.770;9.154;2023-05-09T10:40:22;20.30;99.90
2024;DHT22;1016;48.770;9.154;2023-05-09T10:42:47;20.30;99.90
2024;DHT22;1016;48.770;9.154;2023-05-09T10:45:13;20.30;99.90
2024;DHT22;1016;48.770;9.154;2023-05-09T10:50:07;20.50;99.90
2024;DHT22;1016;48.770;9.154;2023-05-09T10:52:33;20.50;99.90
2024;DHT22;1016;48.770;9.154;2023-05-09T10:55:01;20.50;99.90
2024;DHT22;1016;48.770;9.154;2023-05-09T10:57:28;20.60;99.90
2024;DHT22;1016;48.770;9.154;2023-05-09T10:59:55;20.60;99.90
2024;DHT22;1016;48.770;9.154;2023-05-09T11:02:21;20.70;99.90
2024;DHT22;1016;48.770;9.154;2023-05-09T11:05:14;20.80;99.90
2024;DHT22;1016;48.770;9.154;2023-05-09T11:07:40;20.80;99.90
2024;DHT22;1016;48.770;9.154;2023-05-09T11:10:09;20.90;99.90
2024;DHT22;1016;48.770;9.154;2023-05-09T11:15:21;21.00;99.90
2024;DHT22;1016;48.770;9.154;2023-05-09T11:18:10;21.00;99.90
2024;DHT22;1016;48.770;9.154;2023-05-09T11:20:43;21.10;99.90
2024;DHT22;1016;48.770;9.154;2023-05-09T11:23:09;21.10;99.90
2024;DHT22;1016;48.770;9.154;2023-05-09T11:25:41;21.10;99.90
2024;DHT22;1016;48.770;9.154;2023-05-09T11:28:06;21.20;99.90
2024;DHT22;1016;48.770;9.154;2023-05-09T11:30:41;21.20;99.90
2024;DHT22;1016;48.770;9.154;2023-05-09T11:33:26;21.30;99.90
2024;DHT22;1016;48.770;9.154;2023-05-09T11:36:20;21.40;99.90
2024;DHT22;1016;48.770;9.154;2023-05-09T11:39:08;21.40;99.90
2024;DHT22;1016;48.770;9.154;2023-05-09T11:41:45;21.40;99.90
2024;DHT22;1016;48.770;9.154;2023-05-09T11:44:18;21.50;99.90
2024;DHT22;1016;48.770;9.154;2023-05-09T11:46:48;21.50;99.90
2024;DHT22;1016;48.770;9.154;2023-05-09T11:49:14;21.60;99.90
2024;DHT22;1016;48.770;9.154;2023-05-09T11:51:41;21.60;99.90
2024;DHT22;1016;48.770;9.154;2023-05-09T11:54:07;21.70;99.90
2024;DHT22;1016;48.770;9.154;2023-05-09T11:56:35;21.70;99.90
2024;DHT22;1016;48.770;9.154;2023-05-09T11:59:00;21.70;99.90
2024;DHT22;1016;48.770;9.154;2023-05-09T12:01:30;21.80;99.90
2024;DHT22;1016;48.770;9.154;2023-05-09T12:03:57;21.90;99.90
2024;DHT22;1016;48.770;9.154;2023-05-09T12:06:23;21.90;99.90
2024;DHT22;1016;48.770;9.154;2023-05-09T12:08:50;21.90;99.90
2024;DHT22;1016;48.770;9.154;2023-05-09T12:11:16;21.90;99.90
2024;DHT22;1016;48.770;9.154;2023-05-09T12:13:49;22.00;99.90
2024;DHT22;1016;48.770;9.154;2023-05-09T12:16:15;22.00;99.90
2024;DHT22;1016;48.770;9.154;2023-05-09T12:18:51;22.00;99.90
2024;DHT22;1016;48.770;9.154;2023-05-09T12:21:18;22.20;99.90
2024;DHT22;1016;48.770;9.154;2023-05-09T12:23:45;22.10;99.90
2024;DHT22;1016;48.770;9.154;2023-05-09T12:26:10;22.20;99.90
2024;DHT22;1016;48.770;9.154;2023-05-09T12:28:37;22.20;99.90
2024;DHT22;1016;48.770;9.154;2023-05-09T12:31:04;22.10;99.90
2024;DHT22;1016;48.770;9.154;2023-05-09T12:33:30;22.20;99.90
2024;DHT22;1016;48.770;9.154;2023-05-09T12:36:09;22.10;99.90
2024;DHT22;1016;48.770;9.154;2023-05-09T12:38:35;22.10;99.90
2024;DHT22;1016;48.770;9.154;2023-05-09T12:41:03;22.10;99.90
2024;DHT22;1016;48.770;9.154;2023-05-09T12:43:30;22.10;99.90
2024;DHT22;1016;48.770;9.154;2023-05-09T12:45:57;22.10;99.90
2024;DHT22;1016;48.770;9.154;2023-05-09T12:48:23;22.20;99.90
2024;DHT22;1016;48.770;9.154;2023-05-09T12:50:50;22.10;99.90
2024;DHT22;1016;48.770;9.154;2023-05-09T12:53:23;22.10;99.90
2024;DHT22;1016;48.770;9.154;2023-05-09T12:55:52;22.10;99.90
2024;DHT22;1016;48.770;9.154;2023-05-09T12:58:18;22.10;99.90
2024;DHT22;1016;48.770;9.154;2023-05-09T13:00:44;22.00;99.90
2024;DHT22;1016;48.770;9.154;2023-05-09T13:03:25;22.00;99.90
2024;DHT22;1016;48.770;9.154;2023-05-09T13:05:56;21.90;99.90
2024;DHT22;1016;48.770;9.154;2023-05-09T13:08:22;21.90;99.90
2024;DHT22;1016;48.770;9.154;2023-05-09T13:10:47;21.90;99.90
2024;DHT22;1016;48.770;9.154;2023-05-09T13:13:17;21.90;99.90
2024;DHT22;1016;48.770;9.154;2023-05-09T13:15:44;21.90;99.90
2024;DHT22;1016;48.770;9.154;2023-05-09T13:18:10;21.90;99.90
2024;DHT22;1016;48.770;9.154;2023-05-09T13:20:36;21.90;99.90
2024;DHT22;1016;48.770;9.154;2023-05-09T13:23:01;21.90;99.90
2024;DHT22;1016;48.770;9.154;2023-05-09T13:25:27;21.90;99.90
2024;DHT22;1016;48.770;9.154;2023-05-09T13:27:53;22.00;99.90
2024;DHT22;1016;48.770;9.154;2023-05-09T13:30:18;22.00;99.90
2024;DHT22;1016;48.770;9.154;2023-05-09T13:32:44;21.90;99.90
2024;DHT22;1016;48.770;9.154;2023-05-09T13:35:09;21.90;99.90
2024;DHT22;1016;48.770;9.154;2023-05-09T13:37:35;21.90;99.90
2024;DHT22;1016;48.770;9.154;2023-05-09T13:40:01;21.90;99.90
2024;DHT22;1016;48.770;9.154;2023-05-09T13:42:27;21.90;99.90
2024;DHT22;1016;48.770;9.154;2023-05-09T13:44:52;21.90;99.90
2024;DHT22;1016;48.770;9.154;2023-05-09T13:47:18;21.80;99.90
2024;DHT22;1016;48.770;9.154;2023-05-09T13:49:43;21.80;99.90
2024;DHT22;1016;48.770;9.154;2023-05-09T13:52:09;21.70;99.90
2024;DHT22;1016;48.770;9.154;2023-05-09T13:54:34;21.70;99.90
2024;DHT22;1016;48.770;9.154;2023-05-09T13:57:04;21.60;99.90
2024;DHT22;1016;48.770;9.154;2023-05-09T13:59:33;21.50;99.90
2024;DHT22;1016;48.770;9.154;2023-05-09T14:01:59;21.50;99.90
2024;DHT22;1016;48.770;9.154;2023-05-09T14:04:29;21.50;99.90
2024;DHT22;1016;48.770;9.154;2023-05-09T14:06:56;21.40;99.90
2024;DHT22;1016;48.770;9.154;2023-05-09T14:09:22;21.40;99.90
2024;DHT22;1016;48.770;9.154;2023-05-09T14:11:49;21.30;99.90
2024;DHT22;1016;48.770;9.154;2023-05-09T14:14:22;21.20;99.90
2024;DHT22;1016;48.770;9.154;2023-05-09T14:16:48;21.20;99.90
2024;DHT22;1016;48.770;9.154;2023-05-09T14:19:14;21.20;99.90
2024;DHT22;1016;48.770;9.154;2023-05-09T14:21:41;21.20;99.90
2024;DHT22;1016;48.770;9.154;2023-05-09T14:24:13;21.20;99.90
2024;DHT22;1016;48.770;9.154;2023-05-09T14:26:38;21.30;99.90
2024;DHT22;1016;48.770;9.154;2023-05-09T14:29:05;21.30;99.90
2024;DHT22;1016;48.770;9.154;2023-05-09T14:31:31;21.30;99.90
2024;DHT22;1016;48.770;9.154;2023-05-09T14:33:56;21.30;99.90
2024;DHT22;1016;48.770;9.154;2023-05-09T14:36:24;21.30;99.90
2024;DHT22;1016;48.770;9.154;2023-05-09T14:38:51;21.30;99.90
2024;DHT22;1016;48.770;9.154;2023-05-09T14:41:17;21.30;99.90
2024;DHT22;1016;48.770;9.154;2023-05-09T14:43:42;21.20;99.90
2024;DHT22;1016;48.770;9.154;2023-05-09T14:46:08;21.20;99.90
2024;DHT22;1016;48.770;9.154;2023-05-09T14:48:34;21.20;99.90
2024;DHT22;1016;48.770;9.154;2023-05-09T14:50:59;21.20;99.90
2024;DHT22;1016;48.770;9.154;2023-05-09T14:53:26;21.20;99.90
2024;DHT22;1016;48.770;9.154;2023-05-09T14:55:52;21.30;99.90
2024;DHT22;1016;48.770;9.154;2023-05-09T14:58:17;21.30;99.90
2024;DHT22;1016;48.770;9.154;2023-05-09T15:00:46;21.40;99.90
2024;DHT22;1016;48.770;9.154;2023-05-09T15:03:12;21.40;99.90
2024;DHT22;1016;48.770;9.154;2023-05-09T15:05:38;21.40;99.90
2024;DHT22;1016;48.770;9.154;2023-05-09T15:08:04;21.40;99.90
2024;DHT22;1016;48.770;9.154;2023-05-09T15:10:31;21.40;99.90
2024;DHT22;1016;48.770;9.154;2023-05-09T15:12:57;21.40;99.90
2024;DHT22;1016;48.770;9.154;2023-05-09T15:15:23;21.40;99.90
2024;DHT22;1016;48.770;9.154;2023-05-09T15:17:49;21.50;99.90
2024;DHT22;1016;48.770;9.154;2023-05-09T15:20:15;21.50;99.90
2024;DHT22;1016;48.770;9.154;2023-05-09T15:22:45;21.40;99.90
2024;DHT22;1016;48.770;9.154;2023-05-09T15:25:11;21.40;99.90
2024;DHT22;1016;48.770;9.154;2023-05-09T15:27:37;21.40;99.90
2024;DHT22;1016;48.770;9.154;2023-05-09T15:30:04;21.40;99.90
2024;DHT22;1016;48.770;9.154;2023-05-09T15:32:30;21.40;99.90
2024;DHT22;1016;48.770;9.154;2023-05-09T15:34:55;21.40;99.90
2024;DHT22;1016;48.770;9.154;2023-05-09T15:37:21;21.30;99.90
2024;DHT22;1016;48.770;9.154;2023-05-09T15:39:46;21.30;99.90
2024;DHT22;1016;48.770;9.154;2023-05-09T15:42:18;21.30;99.90
2024;DHT22;1016;48.770;9.154;2023-05-09T15:44:44;21.30;99.90
2024;DHT22;1016;48.770;9.154;2023-05-09T15:47:11;21.30;99.90
2024;DHT22;1016;48.770;9.154;2023-05-09T15:49:37;21.30;99.90
2024;DHT22;1016;48.770;9.154;2023-05-09T15:52:03;21.20;99.90
2024;DHT22;1016;48.770;9.154;2023-05-09T15:54:29;21.20;99.90
2024;DHT22;1016;48.770;9.154;2023-05-09T15:56:56;21.20;99.90
2024;DHT22;1016;48.770;9.154;2023-05-09T15:59:21;21.20;99.90
2024;DHT22;1016;48.770;9.154;2023-05-09T16:01:47;21.10;99.90
2024;DHT22;1016;48.770;9.154;2023-05-09T16:04:12;21.00;99.90
2024;DHT22;1016;48.770;9.154;2023-05-09T16:06:38;21.00;99.90
2024;DHT22;1016;48.770;9.154;2023-05-09T16:09:05;20.90;99.90
2024;DHT22;1016;48.770;9.154;2023-05-09T16:11:31;20.90;99.90
2024;DHT22;1016;48.770;9.154;2023-05-09T16:13:57;20.90;99.90
2024;DHT22;1016;48.770;9.154;2023-05-09T16:16:23;20.80;99.90
2024;DHT22;1016;48.770;9.154;2023-05-09T16:18:49;20.80;99.90
2024;DHT22;1016;48.770;9.154;2023-05-09T16:21:14;20.80;99.90